Crescent City, CA

11:34 AM PDT on March 30, 2015 (GMT -0700)
Humboldt Street (Filkins Tract) | | Change Station
CLOSE
Current Station
Personal Weather Station
Location: Crescent City, CA
Elevation: 59 ft
Nearby Weather Stations

Elev 59 ft 41.76 °N, 124.21 °W | Updated 9 seconds ago

Overcast
Overcast
60.3 °F
Feels Like 60.3 °F
N
2.9
Wind Variable Wind from SW
Gusts 9.8 mph

Today
High -- | Low -- °F
--% Chance of Precip.
Yesterday
High -- | Low -- °F
Precip. -- in
7:03 AM 7:39 PM
Waxing Gibbous, 81% visible
Pressure 30.15 in
Visibility 10.0 miles
Clouds Overcast 1100 ft
Dew Point 52 °F
Humidity 73%
Rainfall 0.00 in
Snow Depth Not available.
UV 2 out of 12
Pollen 9.40 out of 12
Air Quality Not available.
Flu Activity Not available.
METAR KCEC 301756Z AUTO 17005KT 10SM OVC011 11/09 A3014 RMK AO2 SLP208 T01110089 10111 20100 53002

More Conditions Fewer Conditions

Pressure 30.15 in
Visibility 10.0 miles
Clouds Overcast 1100 ft
Dew Point 52 °F
Humidity 73%
Rainfall 0.00 in
Snow Depth Not available.
UV 2 out of 12
Pollen 9.40 out of 12
Air Quality Not available.
Flu Activity Not available.
METAR KCEC 301756Z AUTO 17005KT 10SM OVC011 11/09 A3014 RMK AO2 SLP208 T01110089 10111 20100 53002

More Conditions Fewer Conditions

10-Day Weather Forecast

Almanac

Astronomy

Mar. 30, 2015 Rise Set
Actual Time
Civil Twilight
Nautical Twilight
Astronomical Twilight
Moon
Length of Visible Light
Length of Day
Tomorrow will be .
, % of the Moon is Illuminated

Today's Extremes

State Highs State Lows

Community

WunderPhotos

Upload Photos

1,809,562 photos uploaded!

WunderBlogs® & News

Nearby

Air Quality

  Air Quality AQ Index Pollutant
Not available.

Snow Depth

Station Depth Elevation

Earthquake Activity

City Distance Mag. Time & Date
Minimum magnitude displayed is 2.5.

Coastal Water Temperatures

Place Temperature

Stations

Nearby Weather Stations

Station Location Temp. Windchill Dew Point Humidity Wind Precip. Elev Updated Type